sensor_id;sensor_type;location;lat;lon;timestamp;temperature;humidity
5972;DHT22;3012;49.944;8.454;2023-09-30T00:00:17;17.80;99.90
5972;DHT22;3012;49.944;8.454;2023-09-30T00:02:45;18.20;99.90
5972;DHT22;3012;49.944;8.454;2023-09-30T00:05:15;18.20;99.90
5972;DHT22;3012;49.944;8.454;2023-09-30T00:07:47;18.10;99.90
5972;DHT22;3012;49.944;8.454;2023-09-30T00:10:15;18.10;99.90
5972;DHT22;3012;49.944;8.454;2023-09-30T00:12:44;18.30;99.90
5972;DHT22;3012;49.944;8.454;2023-09-30T00:15:13;18.20;99.90
5972;DHT22;3012;49.944;8.454;2023-09-30T00:17:41;18.20;99.90
5972;DHT22;3012;49.944;8.454;2023-09-30T00:20:10;18.20;99.90
5972;DHT22;3012;49.944;8.454;2023-09-30T00:22:44;18.20;99.90
5972;DHT22;3012;49.944;8.454;2023-09-30T00:25:14;18.10;99.90
5972;DHT22;3012;49.944;8.454;2023-09-30T00:27:42;18.20;99.90
5972;DHT22;3012;49.944;8.454;2023-09-30T00:30:11;18.10;99.90
5972;DHT22;3012;49.944;8.454;2023-09-30T00:32:39;18.20;99.90
5972;DHT22;3012;49.944;8.454;2023-09-30T00:35:08;18.00;99.90
5972;DHT22;3012;49.944;8.454;2023-09-30T00:37:38;18.10;99.90
5972;DHT22;3012;49.944;8.454;2023-09-30T00:40:10;18.10;99.90
5972;DHT22;3012;49.944;8.454;2023-09-30T00:42:39;18.20;99.90
5972;DHT22;3012;49.944;8.454;2023-09-30T00:45:08;18.00;99.90
5972;DHT22;3012;49.944;8.454;2023-09-30T00:47:37;18.30;99.90
5972;DHT22;3012;49.944;8.454;2023-09-30T00:50:06;18.10;99.90
5972;DHT22;3012;49.944;8.454;2023-09-30T00:52:38;18.00;99.90
5972;DHT22;3012;49.944;8.454;2023-09-30T00:55:09;18.30;99.90
5972;DHT22;3012;49.944;8.454;2023-09-30T00:57:38;17.80;99.90
5972;DHT22;3012;49.944;8.454;2023-09-30T01:00:08;18.00;99.90
5972;DHT22;3012;49.944;8.454;2023-09-30T01:02:39;17.80;99.90
5972;DHT22;3012;49.944;8.454;2023-09-30T01:05:09;17.90;99.90
5972;DHT22;3012;49.944;8.454;2023-09-30T01:07:37;17.60;99.90
5972;DHT22;3012;49.944;8.454;2023-09-30T01:10:08;17.90;99.90
5972;DHT22;3012;49.944;8.454;2023-09-30T01:12:37;17.90;99.90
5972;DHT22;3012;49.944;8.454;2023-09-30T01:15:05;17.90;99.90
5972;DHT22;3012;49.944;8.454;2023-09-30T01:17:34;17.90;99.90
5972;DHT22;3012;49.944;8.454;2023-09-30T01:20:04;18.00;99.90
5972;DHT22;3012;49.944;8.454;2023-09-30T01:22:35;17.80;99.90
5972;DHT22;3012;49.944;8.454;2023-09-30T01:25:03;17.90;99.90
5972;DHT22;3012;49.944;8.454;2023-09-30T01:27:32;17.80;99.90
5972;DHT22;3012;49.944;8.454;2023-09-30T01:30:00;17.80;99.90
5972;DHT22;3012;49.944;8.454;2023-09-30T01:32:28;17.70;99.90
5972;DHT22;3012;49.944;8.454;2023-09-30T01:34:56;17.90;99.90
5972;DHT22;3012;49.944;8.454;2023-09-30T01:37:27;17.70;99.90
5972;DHT22;3012;49.944;8.454;2023-09-30T01:39:57;17.80;99.90
5972;DHT22;3012;49.944;8.454;2023-09-30T01:42:25;17.70;99.90
5972;DHT22;3012;49.944;8.454;2023-09-30T01:44:53;17.70;99.90
5972;DHT22;3012;49.944;8.454;2023-09-30T01:47:23;17.70;99.90
5972;DHT22;3012;49.944;8.454;2023-09-30T01:49:51;17.80;99.90
5972;DHT22;3012;49.944;8.454;2023-09-30T01:52:19;17.30;99.90
5972;DHT22;3012;49.944;8.454;2023-09-30T01:54:48;17.80;99.90
5972;DHT22;3012;49.944;8.454;2023-09-30T01:57:18;17.80;99.90
5972;DHT22;3012;49.944;8.454;2023-09-30T01:59:46;17.70;99.90
5972;DHT22;3012;49.944;8.454;2023-09-30T02:02:16;17.80;99.90
5972;DHT22;3012;49.944;8.454;2023-09-30T02:04:44;17.60;99.90
5972;DHT22;3012;49.944;8.454;2023-09-30T02:07:13;17.50;99.90
5972;DHT22;3012;49.944;8.454;2023-09-30T02:09:42;17.50;99.90
5972;DHT22;3012;49.944;8.454;2023-09-30T02:12:11;17.60;99.90
5972;DHT22;3012;49.944;8.454;2023-09-30T02:14:40;17.50;99.90
5972;DHT22;3012;49.944;8.454;2023-09-30T02:17:09;17.50;99.90
5972;DHT22;3012;49.944;8.454;2023-09-30T02:19:38;17.50;99.90
5972;DHT22;3012;49.944;8.454;2023-09-30T02:22:07;17.40;99.90
5972;DHT22;3012;49.944;8.454;2023-09-30T02:24:35;17.40;99.90
5972;DHT22;3012;49.944;8.454;2023-09-30T02:27:04;17.40;99.90
5972;DHT22;3012;49.944;8.454;2023-09-30T02:29:32;17.50;99.90
5972;DHT22;3012;49.944;8.454;2023-09-30T02:32:02;17.40;99.90
5972;DHT22;3012;49.944;8.454;2023-09-30T02:34:30;17.40;99.90
5972;DHT22;3012;49.944;8.454;2023-09-30T02:36:58;17.10;99.90
5972;DHT22;3012;49.944;8.454;2023-09-30T02:39:26;17.30;99.90
5972;DHT22;3012;49.944;8.454;2023-09-30T02:41:54;17.30;99.90
5972;DHT22;3012;49.944;8.454;2023-09-30T02:44:24;17.40;99.90
5972;DHT22;3012;49.944;8.454;2023-09-30T02:46:52;17.30;99.90
5972;DHT22;3012;49.944;8.454;2023-09-30T02:49:22;17.30;99.90
5972;DHT22;3012;49.944;8.454;2023-09-30T02:51:51;16.90;99.90
5972;DHT22;3012;49.944;8.454;2023-09-30T02:54:19;16.90;99.90
5972;DHT22;3012;49.944;8.454;2023-09-30T02:56:47;17.50;99.90
5972;DHT22;3012;49.944;8.454;2023-09-30T02:59:15;17.20;99.90
5972;DHT22;3012;49.944;8.454;2023-09-30T03:01:45;17.40;99.90
5972;DHT22;3012;49.944;8.454;2023-09-30T03:04:14;17.50;99.90
5972;DHT22;3012;49.944;8.454;2023-09-30T03:06:47;17.20;99.90
5972;DHT22;3012;49.944;8.454;2023-09-30T03:09:16;17.20;99.90
5972;DHT22;3012;49.944;8.454;2023-09-30T03:11:44;17.30;99.90
5972;DHT22;3012;49.944;8.454;2023-09-30T03:14:13;16.70;99.90
5972;DHT22;3012;49.944;8.454;2023-09-30T03:16:41;17.40;99.90
5972;DHT22;3012;49.944;8.454;2023-09-30T03:19:11;17.20;99.90
5972;DHT22;3012;49.944;8.454;2023-09-30T03:21:43;17.00;99.90
5972;DHT22;3012;49.944;8.454;2023-09-30T03:24:12;17.00;99.90
5972;DHT22;3012;49.944;8.454;2023-09-30T03:26:41;16.60;99.90
5972;DHT22;3012;49.944;8.454;2023-09-30T03:29:09;17.00;99.90
5972;DHT22;3012;49.944;8.454;2023-09-30T03:31:37;16.70;99.90
5972;DHT22;3012;49.944;8.454;2023-09-30T03:34:06;16.90;99.90
5972;DHT22;3012;49.944;8.454;2023-09-30T03:36:35;16.50;99.90
5972;DHT22;3012;49.944;8.454;2023-09-30T03:39:03;16.90;99.90
5972;DHT22;3012;49.944;8.454;2023-09-30T03:41:36;16.90;99.90
5972;DHT22;3012;49.944;8.454;2023-09-30T03:44:05;16.80;99.90
5972;DHT22;3012;49.944;8.454;2023-09-30T03:46:33;16.80;99.90
5972;DHT22;3012;49.944;8.454;2023-09-30T03:49:01;16.70;99.90
5972;DHT22;3012;49.944;8.454;2023-09-30T03:51:30;16.90;99.90
5972;DHT22;3012;49.944;8.454;2023-09-30T03:53:58;16.70;99.90
5972;DHT22;3012;49.944;8.454;2023-09-30T03:56:30;16.80;99.90
5972;DHT22;3012;49.944;8.454;2023-09-30T03:59:00;16.70;99.90
5972;DHT22;3012;49.944;8.454;2023-09-30T04:01:28;16.80;99.90
5972;DHT22;3012;49.944;8.454;2023-09-30T04:03:57;16.80;99.90
5972;DHT22;3012;49.944;8.454;2023-09-30T04:06:26;16.40;99.90
5972;DHT22;3012;49.944;8.454;2023-09-30T04:08:56;16.90;99.90
5972;DHT22;3012;49.944;8.454;2023-09-30T04:11:25;16.60;99.90
5972;DHT22;3012;49.944;8.454;2023-09-30T04:13:53;16.20;99.90
5972;DHT22;3012;49.944;8.454;2023-09-30T04:16:23;16.50;99.90
5972;DHT22;3012;49.944;8.454;2023-09-30T04:18:56;16.50;99.90
5972;DHT22;3012;49.944;8.454;2023-09-30T04:21:24;16.60;99.90
5972;DHT22;3012;49.944;8.454;2023-09-30T04:23:54;16.50;99.90
5972;DHT22;3012;49.944;8.454;2023-09-30T04:26:23;16.60;99.90
5972;DHT22;3012;49.944;8.454;2023-09-30T04:28:52;16.00;99.90
5972;DHT22;3012;49.944;8.454;2023-09-30T04:31:20;15.90;99.90
5972;DHT22;3012;49.944;8.454;2023-09-30T04:33:52;16.40;99.90
5972;DHT22;3012;49.944;8.454;2023-09-30T04:36:20;16.40;99.90
5972;DHT22;3012;49.944;8.454;2023-09-30T04:38:49;16.70;99.90
5972;DHT22;3012;49.944;8.454;2023-09-30T04:41:17;16.40;99.90
5972;DHT22;3012;49.944;8.454;2023-09-30T04:43:45;16.00;99.90
5972;DHT22;3012;49.944;8.454;2023-09-30T04:46:14;16.10;99.90
5972;DHT22;3012;49.944;8.454;2023-09-30T04:48:47;16.80;99.90
5972;DHT22;3012;49.944;8.454;2023-09-30T04:51:17;16.40;99.90
5972;DHT22;3012;49.944;8.454;2023-09-30T04:53:46;16.30;99.90
5972;DHT22;3012;49.944;8.454;2023-09-30T04:56:14;15.90;99.90
5972;DHT22;3012;49.944;8.454;2023-09-30T04:58:42;16.30;99.90
5972;DHT22;3012;49.944;8.454;2023-09-30T05:01:11;16.10;99.90
5972;DHT22;3012;49.944;8.454;2023-09-30T05:03:39;16.20;99.90
5972;DHT22;3012;49.944;8.454;2023-09-30T05:06:07;15.60;99.90
5972;DHT22;3012;49.944;8.454;2023-09-30T05:08:36;15.90;99.90
5972;DHT22;3012;49.944;8.454;2023-09-30T05:11:04;16.20;99.90
5972;DHT22;3012;49.944;8.454;2023-09-30T05:13:32;15.90;99.90
5972;DHT22;3012;49.944;8.454;2023-09-30T05:16:01;16.40;99.90
5972;DHT22;3012;49.944;8.454;2023-09-30T05:18:30;16.10;99.90
5972;DHT22;3012;49.944;8.454;2023-09-30T05:20:58;16.70;99.90
5972;DHT22;3012;49.944;8.454;2023-09-30T05:23:26;15.90;99.90
5972;DHT22;3012;49.944;8.454;2023-09-30T05:25:56;16.30;99.90
5972;DHT22;3012;49.944;8.454;2023-09-30T05:28:24;16.00;99.90
5972;DHT22;3012;49.944;8.454;2023-09-30T05:30:51;15.90;99.90
5972;DHT22;3012;49.944;8.454;2023-09-30T05:33:19;16.10;99.90
5972;DHT22;3012;49.944;8.454;2023-09-30T05:35:47;15.50;99.90
5972;DHT22;3012;49.944;8.454;2023-09-30T05:38:15;16.00;99.90
5972;DHT22;3012;49.944;8.454;2023-09-30T05:40:46;15.80;99.90
5972;DHT22;3012;49.944;8.454;2023-09-30T05:43:16;16.00;99.90
5972;DHT22;3012;49.944;8.454;2023-09-30T05:45:44;16.00;99.90
5972;DHT22;3012;49.944;8.454;2023-09-30T05:48:16;15.90;99.90
5972;DHT22;3012;49.944;8.454;2023-09-30T05:50:44;15.90;99.90
5972;DHT22;3012;49.944;8.454;2023-09-30T05:53:13;16.10;99.90
5972;DHT22;3012;49.944;8.454;2023-09-30T05:55:41;15.70;99.90
5972;DHT22;3012;49.944;8.454;2023-09-30T05:58:09;16.10;99.90
5972;DHT22;3012;49.944;8.454;2023-09-30T06:00:41;15.80;99.90
5972;DHT22;3012;49.944;8.454;2023-09-30T06:03:09;16.10;99.90
5972;DHT22;3012;49.944;8.454;2023-09-30T06:05:39;16.00;99.90
5972;DHT22;3012;49.944;8.454;2023-09-30T06:08:09;15.80;99.90
5972;DHT22;3012;49.944;8.454;2023-09-30T06:10:40;16.40;99.90
5972;DHT22;3012;49.944;8.454;2023-09-30T06:13:11;16.00;99.90
5972;DHT22;3012;49.944;8.454;2023-09-30T06:15:41;16.30;99.90
5972;DHT22;3012;49.944;8.454;2023-09-30T06:18:10;15.60;99.90
5972;DHT22;3012;49.944;8.454;2023-09-30T06:20:41;15.90;99.90
5972;DHT22;3012;49.944;8.454;2023-09-30T06:23:09;15.90;99.90
5972;DHT22;3012;49.944;8.454;2023-09-30T06:25:37;16.00;99.90
5972;DHT22;3012;49.944;8.454;2023-09-30T06:28:07;15.70;99.90
5972;DHT22;3012;49.944;8.454;2023-09-30T06:30:36;15.80;99.90
5972;DHT22;3012;49.944;8.454;2023-09-30T06:33:05;15.30;99.90
5972;DHT22;3012;49.944;8.454;2023-09-30T06:35:34;15.30;99.90
5972;DHT22;3012;49.944;8.454;2023-09-30T06:38:05;16.00;99.90
5972;DHT22;3012;49.944;8.454;2023-09-30T06:40:34;15.40;99.90
5972;DHT22;3012;49.944;8.454;2023-09-30T06:43:06;15.80;99.90
5972;DHT22;3012;49.944;8.454;2023-09-30T06:45:36;15.60;99.90
5972;DHT22;3012;49.944;8.454;2023-09-30T06:48:10;16.00;99.90
5972;DHT22;3012;49.944;8.454;2023-09-30T06:50:42;15.90;99.90
5972;DHT22;3012;49.944;8.454;2023-09-30T06:53:11;16.50;99.90
5972;DHT22;3012;49.944;8.454;2023-09-30T06:55:39;15.30;99.90
5972;DHT22;3012;49.944;8.454;2023-09-30T06:58:07;15.30;99.90
5972;DHT22;3012;49.944;8.454;2023-09-30T07:00:37;15.40;99.90
5972;DHT22;3012;49.944;8.454;2023-09-30T07:03:06;16.00;99.90
5972;DHT22;3012;49.944;8.454;2023-09-30T07:05:35;15.90;99.90
5972;DHT22;3012;49.944;8.454;2023-09-30T07:08:04;16.00;99.90
5972;DHT22;3012;49.944;8.454;2023-09-30T07:10:32;16.00;99.90
5972;DHT22;3012;49.944;8.454;2023-09-30T07:13:02;15.50;99.90
5972;DHT22;3012;49.944;8.454;2023-09-30T07:15:30;15.90;99.90
5972;DHT22;3012;49.944;8.454;2023-09-30T07:17:58;16.00;99.90
5972;DHT22;3012;49.944;8.454;2023-09-30T07:20:26;15.90;99.90
5972;DHT22;3012;49.944;8.454;2023-09-30T07:22:56;15.90;99.90
5972;DHT22;3012;49.944;8.454;2023-09-30T07:25:41;16.20;99.90
5972;DHT22;3012;49.944;8.454;2023-09-30T07:28:10;16.00;99.90
5972;DHT22;3012;49.944;8.454;2023-09-30T07:30:39;15.60;99.90
5972;DHT22;3012;49.944;8.454;2023-09-30T07:33:07;15.80;99.90
5972;DHT22;3012;49.944;8.454;2023-09-30T07:35:36;16.30;99.90
5972;DHT22;3012;49.944;8.454;2023-09-30T07:38:06;16.30;99.90
5972;DHT22;3012;49.944;8.454;2023-09-30T07:40:34;16.50;99.90
5972;DHT22;3012;49.944;8.454;2023-09-30T07:43:03;16.60;99.90
5972;DHT22;3012;49.944;8.454;2023-09-30T07:45:31;16.50;99.90
5972;DHT22;3012;49.944;8.454;2023-09-30T07:47:59;16.30;99.90
5972;DHT22;3012;49.944;8.454;2023-09-30T07:50:30;16.10;99.90
5972;DHT22;3012;49.944;8.454;2023-09-30T07:52:57;16.80;99.90
5972;DHT22;3012;49.944;8.454;2023-09-30T07:55:28;16.90;99.90
5972;DHT22;3012;49.944;8.454;2023-09-30T07:57:56;16.90;99.90
5972;DHT22;3012;49.944;8.454;2023-09-30T08:00:26;16.90;99.90
5972;DHT22;3012;49.944;8.454;2023-09-30T08:02:53;16.60;99.90
5972;DHT22;3012;49.944;8.454;2023-09-30T08:05:21;17.00;99.90
5972;DHT22;3012;49.944;8.454;2023-09-30T08:07:49;17.10;99.90
5972;DHT22;3012;49.944;8.454;2023-09-30T08:10:17;17.10;99.90
5972;DHT22;3012;49.944;8.454;2023-09-30T08:12:47;16.90;99.90
5972;DHT22;3012;49.944;8.454;2023-09-30T08:15:17;17.30;99.90
5972;DHT22;3012;49.944;8.454;2023-09-30T08:17:45;17.40;99.90
5972;DHT22;3012;49.944;8.454;2023-09-30T08:20:13;17.40;99.90
5972;DHT22;3012;49.944;8.454;2023-09-30T08:22:41;17.50;99.90
5972;DHT22;3012;49.944;8.454;2023-09-30T08:25:09;17.50;99.90
5972;DHT22;3012;49.944;8.454;2023-09-30T08:27:38;17.60;99.90
5972;DHT22;3012;49.944;8.454;2023-09-30T08:30:08;17.70;99.90
5972;DHT22;3012;49.944;8.454;2023-09-30T08:32:37;17.80;99.90
5972;DHT22;3012;49.944;8.454;2023-09-30T08:35:06;17.60;99.90
5972;DHT22;3012;49.944;8.454;2023-09-30T08:37:34;17.80;99.90
5972;DHT22;3012;49.944;8.454;2023-09-30T08:40:02;18.20;99.90
5972;DHT22;3012;49.944;8.454;2023-09-30T08:42:32;18.30;99.90
5972;DHT22;3012;49.944;8.454;2023-09-30T08:45:02;17.60;99.90
5972;DHT22;3012;49.944;8.454;2023-09-30T08:47:31;18.30;99.90
5972;DHT22;3012;49.944;8.454;2023-09-30T08:50:03;18.40;99.90
5972;DHT22;3012;49.944;8.454;2023-09-30T08:52:33;18.60;99.90
5972;DHT22;3012;49.944;8.454;2023-09-30T08:55:07;18.30;99.90
5972;DHT22;3012;49.944;8.454;2023-09-30T08:57:37;19.10;99.90
5972;DHT22;3012;49.944;8.454;2023-09-30T09:00:07;19.30;99.90
5972;DHT22;3012;49.944;8.454;2023-09-30T09:02:39;19.50;99.90
5972;DHT22;3012;49.944;8.454;2023-09-30T09:05:08;19.50;99.90
5972;DHT22;3012;49.944;8.454;2023-09-30T09:07:38;19.80;99.90
5972;DHT22;3012;49.944;8.454;2023-09-30T09:10:08;19.50;99.90
5972;DHT22;3012;49.944;8.454;2023-09-30T09:12:37;19.50;99.90
5972;DHT22;3012;49.944;8.454;2023-09-30T09:15:07;19.60;99.90
5972;DHT22;3012;49.944;8.454;2023-09-30T09:17:46;19.60;99.90
5972;DHT22;3012;49.944;8.454;2023-09-30T09:20:17;19.60;99.90
5972;DHT22;3012;49.944;8.454;2023-09-30T09:22:48;19.70;99.90
5972;DHT22;3012;49.944;8.454;2023-09-30T09:25:17;19.70;99.90
5972;DHT22;3012;49.944;8.454;2023-09-30T09:27:45;19.60;99.90
5972;DHT22;3012;49.944;8.454;2023-09-30T09:30:17;19.90;99.90
5972;DHT22;3012;49.944;8.454;2023-09-30T09:32:59;19.90;99.90
5972;DHT22;3012;49.944;8.454;2023-09-30T09:35:27;20.10;99.90
5972;DHT22;3012;49.944;8.454;2023-09-30T09:37:58;20.20;99.90
5972;DHT22;3012;49.944;8.454;2023-09-30T09:40:28;20.20;99.90
5972;DHT22;3012;49.944;8.454;2023-09-30T09:42:56;20.50;99.90
5972;DHT22;3012;49.944;8.454;2023-09-30T09:45:26;20.60;99.90
5972;DHT22;3012;49.944;8.454;2023-09-30T09:47:55;20.70;99.90
5972;DHT22;3012;49.944;8.454;2023-09-30T09:50:30;20.70;99.90
5972;DHT22;3012;49.944;8.454;2023-09-30T09:52:59;20.90;99.90
5972;DHT22;3012;49.944;8.454;2023-09-30T09:55:28;20.90;99.90
5972;DHT22;3012;49.944;8.454;2023-09-30T09:57:58;20.60;99.90
5972;DHT22;3012;49.944;8.454;2023-09-30T10:00:26;21.00;99.90
5972;DHT22;3012;49.944;8.454;2023-09-30T10:02:57;21.10;99.90
5972;DHT22;3012;49.944;8.454;2023-09-30T10:05:26;20.90;99.90
5972;DHT22;3012;49.944;8.454;2023-09-30T10:08:00;21.20;99.90
5972;DHT22;3012;49.944;8.454;2023-09-30T10:10:28;21.20;99.90
5972;DHT22;3012;49.944;8.454;2023-09-30T10:12:56;21.40;99.90
5972;DHT22;3012;49.944;8.454;2023-09-30T10:15:37;21.50;99.90
5972;DHT22;3012;49.944;8.454;2023-09-30T10:18:10;21.60;99.90
5972;DHT22;3012;49.944;8.454;2023-09-30T10:20:42;21.60;99.90
5972;DHT22;3012;49.944;8.454;2023-09-30T10:23:22;21.30;99.90
5972;DHT22;3012;49.944;8.454;2023-09-30T10:25:52;21.70;99.80
5972;DHT22;3012;49.944;8.454;2023-09-30T10:28:37;21.80;99.90
5972;DHT22;3012;49.944;8.454;2023-09-30T10:31:10;21.90;99.90
5972;DHT22;3012;49.944;8.454;2023-09-30T10:34:22;22.10;99.90
5972;DHT22;3012;49.944;8.454;2023-09-30T10:36:50;22.20;99.40
5972;DHT22;3012;49.944;8.454;2023-09-30T10:39:54;22.40;97.60
5972;DHT22;3012;49.944;8.454;2023-09-30T10:42:48;22.50;97.80
5972;DHT22;3012;49.944;8.454;2023-09-30T10:45:43;22.60;97.60
5972;DHT22;3012;49.944;8.454;2023-09-30T10:48:37;22.70;96.30
5972;DHT22;3012;49.944;8.454;2023-09-30T10:51:16;22.70;95.70
5972;DHT22;3012;49.944;8.454;2023-09-30T10:53:47;22.80;94.40
5972;DHT22;3012;49.944;8.454;2023-09-30T10:56:15;23.10;95.30
5972;DHT22;3012;49.944;8.454;2023-09-30T10:58:44;23.00;93.20
5972;DHT22;3012;49.944;8.454;2023-09-30T11:01:13;23.30;93.10
5972;DHT22;3012;49.944;8.454;2023-09-30T11:03:43;23.70;91.40
5972;DHT22;3012;49.944;8.454;2023-09-30T11:06:13;23.80;89.50
5972;DHT22;3012;49.944;8.454;2023-09-30T11:08:48;24.00;85.30
5972;DHT22;3012;49.944;8.454;2023-09-30T11:11:17;24.00;85.70
5972;DHT22;3012;49.944;8.454;2023-09-30T11:13:45;24.20;87.80
5972;DHT22;3012;49.944;8.454;2023-09-30T11:16:12;24.20;88.10
5972;DHT22;3012;49.944;8.454;2023-09-30T11:18:40;24.30;85.90
5972;DHT22;3012;49.944;8.454;2023-09-30T11:21:10;24.40;83.30
5972;DHT22;3012;49.944;8.454;2023-09-30T11:23:41;24.60;84.30
5972;DHT22;3012;49.944;8.454;2023-09-30T11:26:09;24.80;81.60
5972;DHT22;3012;49.944;8.454;2023-09-30T11:28:38;24.80;81.80
5972;DHT22;3012;49.944;8.454;2023-09-30T11:31:10;24.90;81.30
5972;DHT22;3012;49.944;8.454;2023-09-30T11:33:51;25.00;74.00
5972;DHT22;3012;49.944;8.454;2023-09-30T11:36:20;25.10;74.60
5972;DHT22;3012;49.944;8.454;2023-09-30T11:38:51;25.10;74.80
5972;DHT22;3012;49.944;8.454;2023-09-30T11:41:20;25.20;71.60
5972;DHT22;3012;49.944;8.454;2023-09-30T11:44:00;25.00;72.50
5972;DHT22;3012;49.944;8.454;2023-09-30T11:46:28;24.90;72.00
5972;DHT22;3012;49.944;8.454;2023-09-30T11:48:57;24.50;71.60
5972;DHT22;3012;49.944;8.454;2023-09-30T11:51:26;24.40;70.80
5972;DHT22;3012;49.944;8.454;2023-09-30T11:53:56;24.20;71.50
5972;DHT22;3012;49.944;8.454;2023-09-30T11:56:25;24.20;72.20
5972;DHT22;3012;49.944;8.454;2023-09-30T11:58:56;24.10;74.30
5972;DHT22;3012;49.944;8.454;2023-09-30T12:01:26;24.10;72.60
5972;DHT22;3012;49.944;8.454;2023-09-30T12:03:58;24.10;73.40
5972;DHT22;3012;49.944;8.454;2023-09-30T12:06:26;24.20;75.10
5972;DHT22;3012;49.944;8.454;2023-09-30T12:08:55;24.20;72.50
5972;DHT22;3012;49.944;8.454;2023-09-30T12:11:24;24.30;70.10
5972;DHT22;3012;49.944;8.454;2023-09-30T12:13:52;24.60;69.70
5972;DHT22;3012;49.944;8.454;2023-09-30T12:16:20;24.50;70.20
5972;DHT22;3012;49.944;8.454;2023-09-30T12:18:50;24.40;68.70
5972;DHT22;3012;49.944;8.454;2023-09-30T12:21:18;24.50;67.70
5972;DHT22;3012;49.944;8.454;2023-09-30T12:23:46;24.40;67.60
5972;DHT22;3012;49.944;8.454;2023-09-30T12:26:16;24.20;66.20
5972;DHT22;3012;49.944;8.454;2023-09-30T12:28:46;24.40;66.70
5972;DHT22;3012;49.944;8.454;2023-09-30T12:31:14;24.50;67.70
5972;DHT22;3012;49.944;8.454;2023-09-30T12:33:44;24.60;67.20
5972;DHT22;3012;49.944;8.454;2023-09-30T12:36:17;24.70;65.50
5972;DHT22;3012;49.944;8.454;2023-09-30T12:38:45;24.70;65.80
5972;DHT22;3012;49.944;8.454;2023-09-30T12:41:15;24.80;66.00
5972;DHT22;3012;49.944;8.454;2023-09-30T12:43:45;25.00;68.10
5972;DHT22;3012;49.944;8.454;2023-09-30T12:46:13;25.40;66.80
5972;DHT22;3012;49.944;8.454;2023-09-30T12:48:41;25.70;64.50
5972;DHT22;3012;49.944;8.454;2023-09-30T12:51:11;25.80;63.80
5972;DHT22;3012;49.944;8.454;2023-09-30T12:53:39;26.00;63.30
5972;DHT22;3012;49.944;8.454;2023-09-30T12:56:07;26.20;64.00
5972;DHT22;3012;49.944;8.454;2023-09-30T12:58:36;26.30;63.10
5972;DHT22;3012;49.944;8.454;2023-09-30T13:01:05;26.30;60.10
5972;DHT22;3012;49.944;8.454;2023-09-30T13:03:48;26.40;60.20
5972;DHT22;3012;49.944;8.454;2023-09-30T13:06:16;26.40;59.60
5972;DHT22;3012;49.944;8.454;2023-09-30T13:08:45;26.40;59.10
5972;DHT22;3012;49.944;8.454;2023-09-30T13:11:13;26.60;58.40
5972;DHT22;3012;49.944;8.454;2023-09-30T13:13:43;26.50;58.20
5972;DHT22;3012;49.944;8.454;2023-09-30T13:16:12;26.60;57.90
5972;DHT22;3012;49.944;8.454;2023-09-30T13:18:40;26.40;57.50
5972;DHT22;3012;49.944;8.454;2023-09-30T13:21:08;26.20;57.50
5972;DHT22;3012;49.944;8.454;2023-09-30T13:23:39;26.20;58.80
5972;DHT22;3012;49.944;8.454;2023-09-30T13:26:07;26.30;58.80
5972;DHT22;3012;49.944;8.454;2023-09-30T13:28:35;26.40;57.70
5972;DHT22;3012;49.944;8.454;2023-09-30T13:31:04;26.40;58.20
5972;DHT22;3012;49.944;8.454;2023-09-30T13:33:32;26.40;58.70
5972;DHT22;3012;49.944;8.454;2023-09-30T13:36:00;26.30;59.40
5972;DHT22;3012;49.944;8.454;2023-09-30T13:38:29;25.90;58.10
5972;DHT22;3012;49.944;8.454;2023-09-30T13:40:57;25.70;59.00
5972;DHT22;3012;49.944;8.454;2023-09-30T13:43:24;25.50;59.10
5972;DHT22;3012;49.944;8.454;2023-09-30T13:45:53;25.30;58.60
5972;DHT22;3012;49.944;8.454;2023-09-30T13:48:22;25.10;59.40
5972;DHT22;3012;49.944;8.454;2023-09-30T13:50:51;24.90;59.50
5972;DHT22;3012;49.944;8.454;2023-09-30T13:53:19;24.70;58.80
5972;DHT22;3012;49.944;8.454;2023-09-30T13:55:47;24.80;61.50
5972;DHT22;3012;49.944;8.454;2023-09-30T13:58:16;25.10;61.20
5972;DHT22;3012;49.944;8.454;2023-09-30T14:00:46;25.30;58.80
5972;DHT22;3012;49.944;8.454;2023-09-30T14:03:15;25.40;58.80
5972;DHT22;3012;49.944;8.454;2023-09-30T14:05:45;24.90;57.90
5972;DHT22;3012;49.944;8.454;2023-09-30T14:08:13;24.20;58.40
5972;DHT22;3012;49.944;8.454;2023-09-30T14:10:41;23.70;61.30
5972;DHT22;3012;49.944;8.454;2023-09-30T14:13:11;23.40;61.90
5972;DHT22;3012;49.944;8.454;2023-09-30T14:15:39;22.80;64.70
5972;DHT22;3012;49.944;8.454;2023-09-30T14:18:07;22.40;65.50
5972;DHT22;3012;49.944;8.454;2023-09-30T14:20:35;22.10;67.10
5972;DHT22;3012;49.944;8.454;2023-09-30T14:23:04;21.80;66.90
5972;DHT22;3012;49.944;8.454;2023-09-30T14:25:32;21.70;68.10
5972;DHT22;3012;49.944;8.454;2023-09-30T14:28:00;21.50;68.00
5972;DHT22;3012;49.944;8.454;2023-09-30T14:30:28;21.30;68.60
5972;DHT22;3012;49.944;8.454;2023-09-30T14:32:56;21.20;70.30
5972;DHT22;3012;49.944;8.454;2023-09-30T14:35:24;21.10;70.80
5972;DHT22;3012;49.944;8.454;2023-09-30T14:37:52;21.00;71.20
5972;DHT22;3012;49.944;8.454;2023-09-30T14:40:22;21.00;71.60
5972;DHT22;3012;49.944;8.454;2023-09-30T14:42:50;20.90;70.60
5972;DHT22;3012;49.944;8.454;2023-09-30T14:45:20;20.80;70.80
5972;DHT22;3012;49.944;8.454;2023-09-30T14:47:48;20.70;73.10
5972;DHT22;3012;49.944;8.454;2023-09-30T14:50:16;20.80;74.10
5972;DHT22;3012;49.944;8.454;2023-09-30T14:52:44;20.60;76.10
5972;DHT22;3012;49.944;8.454;2023-09-30T14:55:12;20.70;76.10
5972;DHT22;3012;49.944;8.454;2023-09-30T14:57:44;20.30;75.50
5972;DHT22;3012;49.944;8.454;2023-09-30T15:00:13;20.10;75.50
5972;DHT22;3012;49.944;8.454;2023-09-30T15:02:42;20.30;76.60
5972;DHT22;3012;49.944;8.454;2023-09-30T15:05:10;20.30;76.70
5972;DHT22;3012;49.944;8.454;2023-09-30T15:07:38;19.90;76.60
5972;DHT22;3012;49.944;8.454;2023-09-30T15:10:07;20.00;76.50
5972;DHT22;3012;49.944;8.454;2023-09-30T15:12:36;20.10;77.00
5972;DHT22;3012;49.944;8.454;2023-09-30T15:15:06;19.60;76.80
5972;DHT22;3012;49.944;8.454;2023-09-30T15:17:35;20.10;78.10
5972;DHT22;3012;49.944;8.454;2023-09-30T15:20:04;20.10;78.40
5972;DHT22;3012;49.944;8.454;2023-09-30T15:22:33;20.00;78.90
5972;DHT22;3012;49.944;8.454;2023-09-30T15:25:00;20.00;80.30
5972;DHT22;3012;49.944;8.454;2023-09-30T15:27:29;20.00;81.60
5972;DHT22;3012;49.944;8.454;2023-09-30T15:29:59;20.00;81.00
5972;DHT22;3012;49.944;8.454;2023-09-30T15:32:29;20.20;81.00
5972;DHT22;3012;49.944;8.454;2023-09-30T15:34:57;19.60;80.30
5972;DHT22;3012;49.944;8.454;2023-09-30T15:37:25;19.90;80.00
5972;DHT22;3012;49.944;8.454;2023-09-30T15:39:53;20.00;80.30
5972;DHT22;3012;49.944;8.454;2023-09-30T15:42:21;19.80;80.10
5972;DHT22;3012;49.944;8.454;2023-09-30T15:44:49;19.60;79.70
5972;DHT22;3012;49.944;8.454;2023-09-30T15:47:22;19.40;80.80
5972;DHT22;3012;49.944;8.454;2023-09-30T15:49:52;19.70;81.50
5972;DHT22;3012;49.944;8.454;2023-09-30T15:52:20;19.70;82.20
5972;DHT22;3012;49.944;8.454;2023-09-30T15:54:48;19.60;82.30
5972;DHT22;3012;49.944;8.454;2023-09-30T15:57:17;19.00;82.00
5972;DHT22;3012;49.944;8.454;2023-09-30T15:59:44;19.50;83.60
5972;DHT22;3012;49.944;8.454;2023-09-30T16:02:12;19.70;84.20
5972;DHT22;3012;49.944;8.454;2023-09-30T16:04:41;19.40;83.40
5972;DHT22;3012;49.944;8.454;2023-09-30T16:07:10;18.80;82.30
5972;DHT22;3012;49.944;8.454;2023-09-30T16:09:38;19.10;84.90
5972;DHT22;3012;49.944;8.454;2023-09-30T16:12:06;19.20;85.20
5972;DHT22;3012;49.944;8.454;2023-09-30T16:14:34;19.30;85.80
5972;DHT22;3012;49.944;8.454;2023-09-30T16:17:02;19.20;85.50